sensor_id;sensor_type;location;lat;lon;timestamp;P1;durP1;ratioP1;P2;durP2;ratioP2
62931;SDS011;49037;41.898;25.004;2022-12-10T06:46:23;93.05;;;40.22;;
62931;SDS011;49037;41.898;25.004;2022-12-10T06:49:03;85.30;;;40.60;;
62931;SDS011;49037;41.898;25.004;2022-12-10T06:51:39;68.63;;;34.78;;
62931;SDS011;49037;41.898;25.004;2022-12-10T06:54:10;71.28;;;32.95;;
62931;SDS011;49037;41.898;25.004;2022-12-10T06:59:52;59.75;;;28.05;;
62931;SDS011;49037;41.898;25.004;2022-12-10T07:02:54;55.33;;;25.60;;
62931;SDS011;49037;41.898;25.004;2022-12-10T07:05:24;58.83;;;29.25;;
62931;SDS011;49037;41.898;25.004;2022-12-10T07:07:55;73.03;;;33.97;;
62931;SDS011;49037;41.898;25.004;2022-12-10T07:10:30;67.05;;;31.00;;
62931;SDS011;49037;41.898;25.004;2022-12-10T07:13:13;64.78;;;29.17;;
62931;SDS011;49037;41.898;25.004;2022-12-10T07:15:52;60.47;;;32.53;;
62931;SDS011;49037;41.898;25.004;2022-12-10T07:19:00;62.05;;;31.85;;
62931;SDS011;49037;41.898;25.004;2022-12-10T07:21:59;62.03;;;32.35;;
62931;SDS011;49037;41.898;25.004;2022-12-10T07:24:24;72.43;;;36.25;;
62931;SDS011;49037;41.898;25.004;2022-12-10T07:27:00;81.43;;;37.58;;
62931;SDS011;49037;41.898;25.004;2022-12-10T07:29:32;76.70;;;39.25;;
62931;SDS011;49037;41.898;25.004;2022-12-10T07:32:02;89.05;;;40.60;;
62931;SDS011;49037;41.898;25.004;2022-12-10T07:34:38;87.18;;;44.40;;
62931;SDS011;49037;41.898;25.004;2022-12-10T07:37:11;71.70;;;35.22;;
62931;SDS011;49037;41.898;25.004;2022-12-10T07:39:39;62.65;;;31.17;;
62931;SDS011;49037;41.898;25.004;2022-12-10T07:49:35;54.55;;;24.85;;
62931;SDS011;49037;41.898;25.004;2022-12-10T07:52:10;57.47;;;25.20;;
62931;SDS011;49037;41.898;25.004;2022-12-10T07:54:48;66.28;;;30.80;;
62931;SDS011;49037;41.898;25.004;2022-12-10T07:57:19;64.97;;;31.52;;
62931;SDS011;49037;41.898;25.004;2022-12-10T08:03:00;63.97;;;24.10;;
62931;SDS011;49037;41.898;25.004;2022-12-10T08:08:57;68.47;;;26.77;;
62931;SDS011;49037;41.898;25.004;2022-12-10T08:11:41;72.70;;;28.73;;
62931;SDS011;49037;41.898;25.004;2022-12-10T08:14:27;72.13;;;28.05;;
62931;SDS011;49037;41.898;25.004;2022-12-10T08:17:00;78.97;;;28.45;;
62931;SDS011;49037;41.898;25.004;2022-12-10T08:19:40;81.63;;;29.65;;
62931;SDS011;49037;41.898;25.004;2022-12-10T08:22:33;88.25;;;27.40;;
62931;SDS011;49037;41.898;25.004;2022-12-10T08:25:09;76.60;;;26.40;;
62931;SDS011;49037;41.898;25.004;2022-12-10T08:27:49;74.75;;;22.95;;
62931;SDS011;49037;41.898;25.004;2022-12-10T08:30:33;78.20;;;25.15;;
62931;SDS011;49037;41.898;25.004;2022-12-10T08:33:12;86.20;;;29.35;;
62931;SDS011;49037;41.898;25.004;2022-12-10T08:39:00;77.85;;;28.50;;
62931;SDS011;49037;41.898;25.004;2022-12-10T08:41:43;77.18;;;27.85;;
62931;SDS011;49037;41.898;25.004;2022-12-10T08:44:33;83.85;;;29.40;;
62931;SDS011;49037;41.898;25.004;2022-12-10T08:47:24;90.47;;;31.63;;
62931;SDS011;49037;41.898;25.004;2022-12-10T08:49:55;81.78;;;28.70;;
62931;SDS011;49037;41.898;25.004;2022-12-10T08:52:35;94.22;;;32.00;;
62931;SDS011;49037;41.898;25.004;2022-12-10T08:55:13;90.85;;;31.48;;
62931;SDS011;49037;41.898;25.004;2022-12-10T08:57:56;87.07;;;31.08;;
62931;SDS011;49037;41.898;25.004;2022-12-10T09:00:33;90.90;;;34.15;;
62931;SDS011;49037;41.898;25.004;2022-12-10T09:03:17;98.22;;;39.03;;
62931;SDS011;49037;41.898;25.004;2022-12-10T09:06:09;91.97;;;34.00;;
62931;SDS011;49037;41.898;25.004;2022-12-10T09:09:24;77.20;;;28.30;;
62931;SDS011;49037;41.898;25.004;2022-12-10T09:12:06;64.95;;;25.95;;
62931;SDS011;49037;41.898;25.004;2022-12-10T09:15:22;71.03;;;25.27;;
62931;SDS011;49037;41.898;25.004;2022-12-10T09:18:26;63.45;;;22.45;;
62931;SDS011;49037;41.898;25.004;2022-12-10T09:20:57;61.90;;;24.40;;
62931;SDS011;49037;41.898;25.004;2022-12-10T09:23:58;61.13;;;25.15;;
62931;SDS011;49037;41.898;25.004;2022-12-10T09:26:29;61.60;;;25.10;;
62931;SDS011;49037;41.898;25.004;2022-12-10T09:29:20;68.35;;;24.58;;
62931;SDS011;49037;41.898;25.004;2022-12-10T09:35:43;78.45;;;30.67;;
62931;SDS011;49037;41.898;25.004;2022-12-10T09:38:27;78.38;;;31.40;;
62931;SDS011;49037;41.898;25.004;2022-12-10T09:41:04;59.65;;;24.48;;
62931;SDS011;49037;41.898;25.004;2022-12-10T09:43:50;35.60;;;16.75;;
62931;SDS011;49037;41.898;25.004;2022-12-10T09:52:28;36.85;;;15.93;;
62931;SDS011;49037;41.898;25.004;2022-12-10T09:55:00;38.17;;;20.27;;
62931;SDS011;49037;41.898;25.004;2022-12-10T09:57:43;40.75;;;18.42;;
62931;SDS011;49037;41.898;25.004;2022-12-10T10:00:24;45.80;;;20.67;;
62931;SDS011;49037;41.898;25.004;2022-12-10T10:03:14;52.40;;;25.75;;
62931;SDS011;49037;41.898;25.004;2022-12-10T10:05:44;59.00;;;30.15;;
62931;SDS011;49037;41.898;25.004;2022-12-10T10:12:00;44.05;;;21.23;;
62931;SDS011;49037;41.898;25.004;2022-12-10T10:14:46;52.85;;;29.10;;
62931;SDS011;49037;41.898;25.004;2022-12-10T10:17:33;40.47;;;22.67;;
62931;SDS011;49037;41.898;25.004;2022-12-10T10:20:04;45.42;;;23.65;;
62931;SDS011;49037;41.898;25.004;2022-12-10T10:22:52;40.15;;;18.90;;
62931;SDS011;49037;41.898;25.004;2022-12-10T10:25:28;37.72;;;18.15;;
62931;SDS011;49037;41.898;25.004;2022-12-10T10:28:12;37.08;;;19.73;;
62931;SDS011;49037;41.898;25.004;2022-12-10T10:30:45;47.55;;;26.60;;
62931;SDS011;49037;41.898;25.004;2022-12-10T10:33:16;23.90;;;11.77;;
62931;SDS011;49037;41.898;25.004;2022-12-10T10:35:47;21.20;;;11.30;;
62931;SDS011;49037;41.898;25.004;2022-12-10T10:38:38;27.25;;;13.43;;
62931;SDS011;49037;41.898;25.004;2022-12-10T10:41:26;39.47;;;21.17;;
62931;SDS011;49037;41.898;25.004;2022-12-10T10:44:19;27.65;;;13.98;;
62931;SDS011;49037;41.898;25.004;2022-12-10T10:47:23;30.52;;;15.90;;
62931;SDS011;49037;41.898;25.004;2022-12-10T10:49:52;21.83;;;10.90;;
62931;SDS011;49037;41.898;25.004;2022-12-10T10:52:23;23.50;;;12.77;;
62931;SDS011;49037;41.898;25.004;2022-12-10T10:54:56;21.30;;;9.93;;
62931;SDS011;49037;41.898;25.004;2022-12-10T11:00:18;29.00;;;15.63;;
62931;SDS011;49037;41.898;25.004;2022-12-10T11:02:47;17.63;;;9.07;;
62931;SDS011;49037;41.898;25.004;2022-12-10T11:05:33;22.58;;;12.30;;
62931;SDS011;49037;41.898;25.004;2022-12-10T11:08:18;17.95;;;10.98;;
62931;SDS011;49037;41.898;25.004;2022-12-10T11:11:12;31.08;;;19.27;;
62931;SDS011;49037;41.898;25.004;2022-12-10T11:13:48;34.78;;;18.80;;
62931;SDS011;49037;41.898;25.004;2022-12-10T11:16:20;36.83;;;20.50;;
62931;SDS011;49037;41.898;25.004;2022-12-10T11:24:48;56.83;;;30.73;;
62931;SDS011;49037;41.898;25.004;2022-12-10T11:27:22;50.70;;;29.30;;
62931;SDS011;49037;41.898;25.004;2022-12-10T11:32:48;16.05;;;9.00;;
62931;SDS011;49037;41.898;25.004;2022-12-10T11:42:02;34.30;;;15.75;;
62931;SDS011;49037;41.898;25.004;2022-12-10T11:57:08;37.72;;;17.80;;
62931;SDS011;49037;41.898;25.004;2022-12-10T12:05:44;39.75;;;18.77;;
62931;SDS011;49037;41.898;25.004;2022-12-10T12:13:41;36.13;;;16.83;;
62931;SDS011;49037;41.898;25.004;2022-12-10T12:22:48;27.88;;;15.15;;
62931;SDS011;49037;41.898;25.004;2022-12-10T12:33:04;41.28;;;21.98;;
62931;SDS011;49037;41.898;25.004;2022-12-10T12:36:14;41.42;;;22.42;;
62931;SDS011;49037;41.898;25.004;2022-12-10T13:05:08;26.10;;;12.85;;
62931;SDS011;49037;41.898;25.004;2022-12-10T13:10:58;24.08;;;13.45;;
62931;SDS011;49037;41.898;25.004;2022-12-10T13:17:37;34.22;;;17.15;;
62931;SDS011;49037;41.898;25.004;2022-12-10T13:23:49;23.95;;;10.23;;
62931;SDS011;49037;41.898;25.004;2022-12-10T13:26:25;19.42;;;9.70;;
62931;SDS011;49037;41.898;25.004;2022-12-10T13:29:22;21.60;;;10.00;;
62931;SDS011;49037;41.898;25.004;2022-12-10T13:32:00;23.92;;;11.10;;
62931;SDS011;49037;41.898;25.004;2022-12-10T13:34:32;20.77;;;10.32;;
62931;SDS011;49037;41.898;25.004;2022-12-10T13:49:33;20.13;;;11.65;;
62931;SDS011;49037;41.898;25.004;2022-12-10T15:25:28;9.95;;;5.53;;
62931;SDS011;49037;41.898;25.004;2022-12-10T15:27:55;10.73;;;4.35;;
62931;SDS011;49037;41.898;25.004;2022-12-10T15:30:35;11.45;;;5.15;;
62931;SDS011;49037;41.898;25.004;2022-12-10T15:33:05;37.17;;;18.20;;
62931;SDS011;49037;41.898;25.004;2022-12-10T15:35:47;27.60;;;14.45;;
62931;SDS011;49037;41.898;25.004;2022-12-10T15:38:13;24.88;;;12.60;;
62931;SDS011;49037;41.898;25.004;2022-12-10T15:40:38;14.30;;;7.20;;
62931;SDS011;49037;41.898;25.004;2022-12-10T15:43:22;17.17;;;8.23;;
62931;SDS011;49037;41.898;25.004;2022-12-10T15:45:51;12.50;;;5.28;;
62931;SDS011;49037;41.898;25.004;2022-12-10T15:48:17;10.45;;;6.03;;
62931;SDS011;49037;41.898;25.004;2022-12-10T15:50:43;33.03;;;18.88;;
62931;SDS011;49037;41.898;25.004;2022-12-10T15:53:16;31.90;;;20.73;;
62931;SDS011;49037;41.898;25.004;2022-12-10T15:55:50;27.52;;;15.52;;
62931;SDS011;49037;41.898;25.004;2022-12-10T15:58:16;15.73;;;9.43;;
62931;SDS011;49037;41.898;25.004;2022-12-10T16:00:42;34.72;;;18.48;;
62931;SDS011;49037;41.898;25.004;2022-12-10T16:03:12;25.63;;;14.65;;
62931;SDS011;49037;41.898;25.004;2022-12-10T16:05:40;21.52;;;12.00;;
62931;SDS011;49037;41.898;25.004;2022-12-10T16:08:24;17.58;;;8.82;;
62931;SDS011;49037;41.898;25.004;2022-12-10T16:10:52;10.80;;;4.10;;
62931;SDS011;49037;41.898;25.004;2022-12-10T16:13:23;7.45;;;4.60;;
62931;SDS011;49037;41.898;25.004;2022-12-10T16:16:00;10.40;;;5.30;;
62931;SDS011;49037;41.898;25.004;2022-12-10T16:18:31;11.88;;;6.15;;
62931;SDS011;49037;41.898;25.004;2022-12-10T16:21:03;10.27;;;5.95;;
62931;SDS011;49037;41.898;25.004;2022-12-10T16:23:30;9.88;;;5.32;;
62931;SDS011;49037;41.898;25.004;2022-12-10T16:25:56;10.68;;;4.18;;
62931;SDS011;49037;41.898;25.004;2022-12-10T16:28:27;12.55;;;5.25;;
62931;SDS011;49037;41.898;25.004;2022-12-10T16:30:57;6.80;;;4.43;;
62931;SDS011;49037;41.898;25.004;2022-12-10T16:33:24;6.57;;;4.00;;
62931;SDS011;49037;41.898;25.004;2022-12-10T16:35:52;8.32;;;4.45;;
62931;SDS011;49037;41.898;25.004;2022-12-10T16:38:21;10.20;;;4.28;;
62931;SDS011;49037;41.898;25.004;2022-12-10T16:40:48;11.48;;;6.10;;
62931;SDS011;49037;41.898;25.004;2022-12-10T16:43:18;7.80;;;3.90;;
62931;SDS011;49037;41.898;25.004;2022-12-10T16:46:05;7.78;;;3.83;;
62931;SDS011;49037;41.898;25.004;2022-12-10T16:48:48;14.88;;;5.78;;
62931;SDS011;49037;41.898;25.004;2022-12-10T16:51:23;14.65;;;7.07;;
62931;SDS011;49037;41.898;25.004;2022-12-10T16:53:54;6.43;;;4.13;;
62931;SDS011;49037;41.898;25.004;2022-12-10T16:56:20;6.47;;;3.58;;
62931;SDS011;49037;41.898;25.004;2022-12-10T16:58:46;10.48;;;5.82;;
62931;SDS011;49037;41.898;25.004;2022-12-10T17:01:22;11.07;;;4.40;;
62931;SDS011;49037;41.898;25.004;2022-12-10T17:03:52;7.68;;;4.20;;
62931;SDS011;49037;41.898;25.004;2022-12-10T17:06:29;6.70;;;4.40;;
62931;SDS011;49037;41.898;25.004;2022-12-10T17:08:57;8.95;;;5.40;;
62931;SDS011;49037;41.898;25.004;2022-12-10T17:11:27;11.38;;;6.10;;
62931;SDS011;49037;41.898;25.004;2022-12-10T17:14:22;29.55;;;13.15;;
62931;SDS011;49037;41.898;25.004;2022-12-10T17:16:56;27.25;;;11.63;;
62931;SDS011;49037;41.898;25.004;2022-12-10T17:19:26;25.52;;;11.52;;
62931;SDS011;49037;41.898;25.004;2022-12-10T17:21:53;19.20;;;7.32;;
62931;SDS011;49037;41.898;25.004;2022-12-10T17:27:51;13.35;;;7.15;;
62931;SDS011;49037;41.898;25.004;2022-12-10T17:30:16;32.15;;;17.42;;
62931;SDS011;49037;41.898;25.004;2022-12-10T17:32:42;17.70;;;8.32;;
62931;SDS011;49037;41.898;25.004;2022-12-10T17:35:08;56.10;;;28.73;;
62931;SDS011;49037;41.898;25.004;2022-12-10T17:37:35;82.18;;;38.78;;
62931;SDS011;49037;41.898;25.004;2022-12-10T17:40:03;60.05;;;29.58;;
62931;SDS011;49037;41.898;25.004;2022-12-10T17:42:39;30.70;;;18.15;;
62931;SDS011;49037;41.898;25.004;2022-12-10T17:45:04;34.72;;;18.58;;
62931;SDS011;49037;41.898;25.004;2022-12-10T17:47:30;20.85;;;9.95;;
62931;SDS011;49037;41.898;25.004;2022-12-10T17:49:57;23.05;;;10.60;;
62931;SDS011;49037;41.898;25.004;2022-12-10T17:52:23;23.70;;;12.10;;
62931;SDS011;49037;41.898;25.004;2022-12-10T17:54:48;29.98;;;17.80;;
62931;SDS011;49037;41.898;25.004;2022-12-10T17:57:16;14.43;;;8.73;;
62931;SDS011;49037;41.898;25.004;2022-12-10T17:59:43;21.92;;;12.13;;
62931;SDS011;49037;41.898;25.004;2022-12-10T18:02:10;8.15;;;4.50;;
62931;SDS011;49037;41.898;25.004;2022-12-10T18:04:35;17.58;;;8.25;;
62931;SDS011;49037;41.898;25.004;2022-12-10T18:07:01;17.92;;;8.27;;
62931;SDS011;49037;41.898;25.004;2022-12-10T18:09:27;14.05;;;8.25;;
62931;SDS011;49037;41.898;25.004;2022-12-10T18:11:52;16.10;;;9.18;;
62931;SDS011;49037;41.898;25.004;2022-12-10T18:14:18;7.38;;;4.78;;
62931;SDS011;49037;41.898;25.004;2022-12-10T18:16:44;7.38;;;4.65;;
62931;SDS011;49037;41.898;25.004;2022-12-10T18:19:12;9.80;;;6.40;;
62931;SDS011;49037;41.898;25.004;2022-12-10T18:21:39;19.10;;;9.68;;
62931;SDS011;49037;41.898;25.004;2022-12-10T18:24:05;12.30;;;6.20;;
62931;SDS011;49037;41.898;25.004;2022-12-10T18:26:31;10.75;;;6.03;;
62931;SDS011;49037;41.898;25.004;2022-12-10T18:28:58;10.98;;;6.07;;
62931;SDS011;49037;41.898;25.004;2022-12-10T18:31:29;11.77;;;5.85;;
62931;SDS011;49037;41.898;25.004;2022-12-10T18:33:57;15.52;;;9.25;;
62931;SDS011;49037;41.898;25.004;2022-12-10T18:36:28;14.52;;;6.55;;
62931;SDS011;49037;41.898;25.004;2022-12-10T18:38:56;21.05;;;14.02;;
62931;SDS011;49037;41.898;25.004;2022-12-10T18:41:23;20.98;;;8.70;;
62931;SDS011;49037;41.898;25.004;2022-12-10T18:43:50;17.80;;;8.93;;
62931;SDS011;49037;41.898;25.004;2022-12-10T18:46:16;10.30;;;4.53;;
62931;SDS011;49037;41.898;25.004;2022-12-10T18:48:44;15.52;;;7.55;;
62931;SDS011;49037;41.898;25.004;2022-12-10T18:51:11;15.13;;;8.40;;
62931;SDS011;49037;41.898;25.004;2022-12-10T18:53:39;11.50;;;6.20;;
62931;SDS011;49037;41.898;25.004;2022-12-10T18:56:06;11.60;;;6.93;;
62931;SDS011;49037;41.898;25.004;2022-12-10T18:58:32;9.77;;;5.53;;
62931;SDS011;49037;41.898;25.004;2022-12-10T19:00:58;10.60;;;6.00;;
62931;SDS011;49037;41.898;25.004;2022-12-10T19:03:23;7.00;;;4.45;;
62931;SDS011;49037;41.898;25.004;2022-12-10T19:05:48;13.02;;;6.82;;
62931;SDS011;49037;41.898;25.004;2022-12-10T19:08:14;13.30;;;6.57;;
62931;SDS011;49037;41.898;25.004;2022-12-10T19:10:39;14.10;;;8.10;;
62931;SDS011;49037;41.898;25.004;2022-12-10T19:13:05;16.40;;;8.68;;
62931;SDS011;49037;41.898;25.004;2022-12-10T19:15:31;21.55;;;9.43;;
62931;SDS011;49037;41.898;25.004;2022-12-10T19:17:56;20.45;;;9.98;;
62931;SDS011;49037;41.898;25.004;2022-12-10T19:20:24;21.35;;;12.18;;
62931;SDS011;49037;41.898;25.004;2022-12-10T19:22:51;25.45;;;12.77;;
62931;SDS011;49037;41.898;25.004;2022-12-10T19:25:17;22.73;;;11.00;;
62931;SDS011;49037;41.898;25.004;2022-12-10T19:27:44;21.05;;;11.15;;
62931;SDS011;49037;41.898;25.004;2022-12-10T19:30:23;30.50;;;13.73;;
62931;SDS011;49037;41.898;25.004;2022-12-10T19:32:50;27.45;;;13.63;;
62931;SDS011;49037;41.898;25.004;2022-12-10T23:50:31;6.43;;;2.40;;
